sensor_id;sensor_type;location;lat;lon;timestamp;temperature;humidity
5286;DHT22;2665;53.112;7.358;2023-05-07T00:01:48;10.90;1.00
5286;DHT22;2665;53.112;7.358;2023-05-07T00:04:14;10.90;1.00
5286;DHT22;2665;53.112;7.358;2023-05-07T00:06:39;10.90;1.00
5286;DHT22;2665;53.112;7.358;2023-05-07T00:09:06;10.90;1.00
5286;DHT22;2665;53.112;7.358;2023-05-07T00:11:32;10.90;1.00
5286;DHT22;2665;53.112;7.358;2023-05-07T00:13:58;10.90;1.00
5286;DHT22;2665;53.112;7.358;2023-05-07T00:16:24;10.90;1.00
5286;DHT22;2665;53.112;7.358;2023-05-07T00:18:49;10.90;1.00
5286;DHT22;2665;53.112;7.358;2023-05-07T00:21:15;10.90;1.00
5286;DHT22;2665;53.112;7.358;2023-05-07T00:23:41;10.90;1.00
5286;DHT22;2665;53.112;7.358;2023-05-07T00:26:07;11.00;1.00
5286;DHT22;2665;53.112;7.358;2023-05-07T00:28:32;10.90;1.00
5286;DHT22;2665;53.112;7.358;2023-05-07T00:30:58;11.00;1.00
5286;DHT22;2665;53.112;7.358;2023-05-07T00:33:24;11.00;1.00
5286;DHT22;2665;53.112;7.358;2023-05-07T00:35:52;11.00;1.00
5286;DHT22;2665;53.112;7.358;2023-05-07T00:38:17;11.00;1.00
5286;DHT22;2665;53.112;7.358;2023-05-07T00:40:43;11.00;1.00
5286;DHT22;2665;53.112;7.358;2023-05-07T00:43:09;11.00;1.00
5286;DHT22;2665;53.112;7.358;2023-05-07T00:45:34;11.00;1.00
5286;DHT22;2665;53.112;7.358;2023-05-07T00:48:00;10.90;1.00
5286;DHT22;2665;53.112;7.358;2023-05-07T00:50:29;11.00;1.00
5286;DHT22;2665;53.112;7.358;2023-05-07T00:52:55;10.90;1.00
5286;DHT22;2665;53.112;7.358;2023-05-07T00:55:22;10.90;1.00
5286;DHT22;2665;53.112;7.358;2023-05-07T00:57:50;10.90;1.00
5286;DHT22;2665;53.112;7.358;2023-05-07T01:00:16;10.90;1.00
5286;DHT22;2665;53.112;7.358;2023-05-07T01:02:43;10.90;1.00
5286;DHT22;2665;53.112;7.358;2023-05-07T01:05:11;10.90;1.00
5286;DHT22;2665;53.112;7.358;2023-05-07T01:07:40;10.90;1.00
5286;DHT22;2665;53.112;7.358;2023-05-07T01:10:06;10.90;1.00
5286;DHT22;2665;53.112;7.358;2023-05-07T01:12:34;10.90;1.00
5286;DHT22;2665;53.112;7.358;2023-05-07T01:15:01;11.00;1.00
5286;DHT22;2665;53.112;7.358;2023-05-07T01:17:27;10.90;1.00
5286;DHT22;2665;53.112;7.358;2023-05-07T01:19:53;10.90;1.00
5286;DHT22;2665;53.112;7.358;2023-05-07T01:22:39;10.90;99.90
5286;DHT22;2665;53.112;7.358;2023-05-07T01:25:06;10.80;99.90
5286;DHT22;2665;53.112;7.358;2023-05-07T01:27:32;10.80;99.90
5286;DHT22;2665;53.112;7.358;2023-05-07T01:29:59;10.80;99.90
5286;DHT22;2665;53.112;7.358;2023-05-07T01:32:45;10.80;99.90
5286;DHT22;2665;53.112;7.358;2023-05-07T01:35:18;10.70;99.90
5286;DHT22;2665;53.112;7.358;2023-05-07T01:37:46;10.70;99.90
5286;DHT22;2665;53.112;7.358;2023-05-07T01:40:12;10.70;99.90
5286;DHT22;2665;53.112;7.358;2023-05-07T01:42:38;10.70;99.90
5286;DHT22;2665;53.112;7.358;2023-05-07T01:45:04;10.70;99.90
5286;DHT22;2665;53.112;7.358;2023-05-07T01:47:30;10.70;99.90
5286;DHT22;2665;53.112;7.358;2023-05-07T01:49:57;10.70;99.90
5286;DHT22;2665;53.112;7.358;2023-05-07T01:52:23;10.60;99.90
5286;DHT22;2665;53.112;7.358;2023-05-07T01:54:50;10.50;99.90
5286;DHT22;2665;53.112;7.358;2023-05-07T01:57:16;10.60;99.90
5286;DHT22;2665;53.112;7.358;2023-05-07T01:59:41;10.60;99.90
5286;DHT22;2665;53.112;7.358;2023-05-07T02:02:07;10.50;99.90
5286;DHT22;2665;53.112;7.358;2023-05-07T02:04:32;10.50;99.90
5286;DHT22;2665;53.112;7.358;2023-05-07T02:06:58;10.50;99.90
5286;DHT22;2665;53.112;7.358;2023-05-07T02:09:23;10.40;1.00
5286;DHT22;2665;53.112;7.358;2023-05-07T02:11:49;10.40;1.00
5286;DHT22;2665;53.112;7.358;2023-05-07T02:14:15;10.40;1.00
5286;DHT22;2665;53.112;7.358;2023-05-07T02:16:41;10.40;1.00
5286;DHT22;2665;53.112;7.358;2023-05-07T02:19:06;10.40;1.00
5286;DHT22;2665;53.112;7.358;2023-05-07T02:21:32;10.40;1.00
5286;DHT22;2665;53.112;7.358;2023-05-07T02:23:57;10.30;1.00
5286;DHT22;2665;53.112;7.358;2023-05-07T02:26:23;10.30;1.00
5286;DHT22;2665;53.112;7.358;2023-05-07T02:28:49;10.30;1.00
5286;DHT22;2665;53.112;7.358;2023-05-07T02:31:14;10.30;1.00
5286;DHT22;2665;53.112;7.358;2023-05-07T02:33:40;10.20;1.00
5286;DHT22;2665;53.112;7.358;2023-05-07T02:36:10;10.20;1.00
5286;DHT22;2665;53.112;7.358;2023-05-07T02:38:35;10.20;1.00
5286;DHT22;2665;53.112;7.358;2023-05-07T02:41:01;10.20;1.00
5286;DHT22;2665;53.112;7.358;2023-05-07T02:43:27;10.20;1.00
5286;DHT22;2665;53.112;7.358;2023-05-07T02:46:06;10.10;1.00
5286;DHT22;2665;53.112;7.358;2023-05-07T02:48:32;10.10;1.00
5286;DHT22;2665;53.112;7.358;2023-05-07T02:50:59;10.10;1.00
5286;DHT22;2665;53.112;7.358;2023-05-07T02:53:25;10.10;1.00
5286;DHT22;2665;53.112;7.358;2023-05-07T02:55:57;10.00;1.00
5286;DHT22;2665;53.112;7.358;2023-05-07T02:58:23;10.10;1.00
5286;DHT22;2665;53.112;7.358;2023-05-07T03:00:49;10.00;1.00
5286;DHT22;2665;53.112;7.358;2023-05-07T03:03:15;10.00;1.00
5286;DHT22;2665;53.112;7.358;2023-05-07T03:05:41;10.00;1.00
5286;DHT22;2665;53.112;7.358;2023-05-07T03:08:07;10.00;1.00
5286;DHT22;2665;53.112;7.358;2023-05-07T03:10:33;10.00;1.00
5286;DHT22;2665;53.112;7.358;2023-05-07T03:12:59;10.00;1.00
5286;DHT22;2665;53.112;7.358;2023-05-07T03:15:24;10.00;1.00
5286;DHT22;2665;53.112;7.358;2023-05-07T03:17:50;9.90;1.00
5286;DHT22;2665;53.112;7.358;2023-05-07T03:20:15;9.90;1.00
5286;DHT22;2665;53.112;7.358;2023-05-07T03:22:41;9.90;1.00
5286;DHT22;2665;53.112;7.358;2023-05-07T03:25:08;9.90;1.00
5286;DHT22;2665;53.112;7.358;2023-05-07T03:27:34;9.90;1.00
5286;DHT22;2665;53.112;7.358;2023-05-07T03:30:00;10.00;1.00
5286;DHT22;2665;53.112;7.358;2023-05-07T03:32:26;9.90;1.00
5286;DHT22;2665;53.112;7.358;2023-05-07T03:34:51;9.90;1.00
5286;DHT22;2665;53.112;7.358;2023-05-07T03:37:17;10.00;1.00
5286;DHT22;2665;53.112;7.358;2023-05-07T03:39:43;9.90;1.00
5286;DHT22;2665;53.112;7.358;2023-05-07T03:42:09;9.90;1.00
5286;DHT22;2665;53.112;7.358;2023-05-07T03:44:34;9.90;1.00
5286;DHT22;2665;53.112;7.358;2023-05-07T03:47:02;9.90;1.00
5286;DHT22;2665;53.112;7.358;2023-05-07T03:49:27;9.90;1.00
5286;DHT22;2665;53.112;7.358;2023-05-07T03:51:53;9.90;1.00
5286;DHT22;2665;53.112;7.358;2023-05-07T03:54:18;9.90;1.00
5286;DHT22;2665;53.112;7.358;2023-05-07T03:56:44;9.90;1.00
5286;DHT22;2665;53.112;7.358;2023-05-07T03:59:09;9.90;1.00
5286;DHT22;2665;53.112;7.358;2023-05-07T04:01:35;9.90;1.00
5286;DHT22;2665;53.112;7.358;2023-05-07T04:04:01;9.90;1.00
5286;DHT22;2665;53.112;7.358;2023-05-07T04:06:26;9.90;1.00
5286;DHT22;2665;53.112;7.358;2023-05-07T04:08:52;9.90;1.00
5286;DHT22;2665;53.112;7.358;2023-05-07T04:11:18;9.90;1.00
5286;DHT22;2665;53.112;7.358;2023-05-07T04:13:44;9.80;1.00
5286;DHT22;2665;53.112;7.358;2023-05-07T04:16:09;9.80;1.00
5286;DHT22;2665;53.112;7.358;2023-05-07T04:18:35;9.80;1.00
5286;DHT22;2665;53.112;7.358;2023-05-07T04:21:00;9.80;1.00
5286;DHT22;2665;53.112;7.358;2023-05-07T04:23:26;9.80;1.00
5286;DHT22;2665;53.112;7.358;2023-05-07T04:25:52;9.80;1.00
5286;DHT22;2665;53.112;7.358;2023-05-07T04:28:18;9.80;1.00
5286;DHT22;2665;53.112;7.358;2023-05-07T04:30:43;9.80;1.00
5286;DHT22;2665;53.112;7.358;2023-05-07T04:33:09;9.80;1.00
5286;DHT22;2665;53.112;7.358;2023-05-07T04:35:35;9.80;1.00
5286;DHT22;2665;53.112;7.358;2023-05-07T04:38:01;9.80;1.00
5286;DHT22;2665;53.112;7.358;2023-05-07T04:40:27;9.80;1.00
5286;DHT22;2665;53.112;7.358;2023-05-07T04:42:52;9.80;1.00
5286;DHT22;2665;53.112;7.358;2023-05-07T04:45:18;9.80;1.00
5286;DHT22;2665;53.112;7.358;2023-05-07T04:47:44;9.80;1.00
5286;DHT22;2665;53.112;7.358;2023-05-07T04:50:10;9.80;1.00
5286;DHT22;2665;53.112;7.358;2023-05-07T04:52:36;9.80;1.00
5286;DHT22;2665;53.112;7.358;2023-05-07T04:55:01;9.80;1.00
5286;DHT22;2665;53.112;7.358;2023-05-07T04:57:27;9.80;1.00
5286;DHT22;2665;53.112;7.358;2023-05-07T04:59:53;9.80;1.00
5286;DHT22;2665;53.112;7.358;2023-05-07T05:02:19;9.80;1.00
5286;DHT22;2665;53.112;7.358;2023-05-07T05:04:45;9.70;1.00
5286;DHT22;2665;53.112;7.358;2023-05-07T05:07:10;9.70;1.00
5286;DHT22;2665;53.112;7.358;2023-05-07T05:09:36;9.80;1.00
5286;DHT22;2665;53.112;7.358;2023-05-07T05:12:02;9.70;1.00
5286;DHT22;2665;53.112;7.358;2023-05-07T05:14:27;9.80;1.00
5286;DHT22;2665;53.112;7.358;2023-05-07T05:16:53;9.80;1.00
5286;DHT22;2665;53.112;7.358;2023-05-07T05:19:18;9.80;1.00
5286;DHT22;2665;53.112;7.358;2023-05-07T05:21:44;9.80;1.00
5286;DHT22;2665;53.112;7.358;2023-05-07T05:24:10;9.90;1.00
5286;DHT22;2665;53.112;7.358;2023-05-07T05:26:35;9.90;1.00
5286;DHT22;2665;53.112;7.358;2023-05-07T05:29:01;9.90;1.00
5286;DHT22;2665;53.112;7.358;2023-05-07T05:31:27;10.00;1.00
5286;DHT22;2665;53.112;7.358;2023-05-07T05:33:52;10.00;1.00
5286;DHT22;2665;53.112;7.358;2023-05-07T05:36:18;10.00;1.00
5286;DHT22;2665;53.112;7.358;2023-05-07T05:38:43;10.10;1.00
5286;DHT22;2665;53.112;7.358;2023-05-07T05:41:10;10.00;1.00
5286;DHT22;2665;53.112;7.358;2023-05-07T05:43:35;10.00;1.00
5286;DHT22;2665;53.112;7.358;2023-05-07T05:46:01;10.10;1.00
5286;DHT22;2665;53.112;7.358;2023-05-07T05:48:28;10.10;1.00
5286;DHT22;2665;53.112;7.358;2023-05-07T05:50:54;10.10;1.00
5286;DHT22;2665;53.112;7.358;2023-05-07T05:53:19;10.10;1.00
5286;DHT22;2665;53.112;7.358;2023-05-07T05:55:45;10.20;1.00
5286;DHT22;2665;53.112;7.358;2023-05-07T05:58:11;10.10;99.90
5286;DHT22;2665;53.112;7.358;2023-05-07T06:00:37;10.20;1.00
5286;DHT22;2665;53.112;7.358;2023-05-07T06:03:03;10.20;1.00
5286;DHT22;2665;53.112;7.358;2023-05-07T06:05:28;10.20;99.90
5286;DHT22;2665;53.112;7.358;2023-05-07T06:07:54;10.20;99.90
5286;DHT22;2665;53.112;7.358;2023-05-07T06:10:19;10.20;99.90
5286;DHT22;2665;53.112;7.358;2023-05-07T06:12:45;10.20;99.90
5286;DHT22;2665;53.112;7.358;2023-05-07T06:15:11;10.20;99.90
5286;DHT22;2665;53.112;7.358;2023-05-07T06:17:36;10.30;99.90
5286;DHT22;2665;53.112;7.358;2023-05-07T06:20:02;10.30;99.90
5286;DHT22;2665;53.112;7.358;2023-05-07T06:22:28;10.40;99.90
5286;DHT22;2665;53.112;7.358;2023-05-07T06:24:53;10.40;99.90
5286;DHT22;2665;53.112;7.358;2023-05-07T06:27:19;10.40;99.90
5286;DHT22;2665;53.112;7.358;2023-05-07T06:29:44;10.40;99.90
5286;DHT22;2665;53.112;7.358;2023-05-07T06:32:11;10.50;99.90
5286;DHT22;2665;53.112;7.358;2023-05-07T06:34:38;10.50;99.90
5286;DHT22;2665;53.112;7.358;2023-05-07T06:37:04;10.50;99.90
5286;DHT22;2665;53.112;7.358;2023-05-07T06:39:30;10.50;99.90
5286;DHT22;2665;53.112;7.358;2023-05-07T06:41:57;10.60;99.90
5286;DHT22;2665;53.112;7.358;2023-05-07T06:44:22;10.60;99.90
5286;DHT22;2665;53.112;7.358;2023-05-07T06:46:48;10.70;99.90
5286;DHT22;2665;53.112;7.358;2023-05-07T06:49:14;10.70;99.90
5286;DHT22;2665;53.112;7.358;2023-05-07T06:51:40;10.70;99.90
5286;DHT22;2665;53.112;7.358;2023-05-07T06:54:06;10.70;99.90
5286;DHT22;2665;53.112;7.358;2023-05-07T06:56:33;10.80;92.20
5286;DHT22;2665;53.112;7.358;2023-05-07T06:59:00;10.80;25.40
5286;DHT22;2665;53.112;7.358;2023-05-07T07:01:26;10.80;1.00
5286;DHT22;2665;53.112;7.358;2023-05-07T07:03:51;10.80;1.00
5286;DHT22;2665;53.112;7.358;2023-05-07T07:06:17;10.80;1.00
5286;DHT22;2665;53.112;7.358;2023-05-07T07:08:42;10.80;1.00
5286;DHT22;2665;53.112;7.358;2023-05-07T07:11:09;10.80;1.00
5286;DHT22;2665;53.112;7.358;2023-05-07T07:13:35;10.80;1.00
5286;DHT22;2665;53.112;7.358;2023-05-07T07:16:01;10.80;1.00
5286;DHT22;2665;53.112;7.358;2023-05-07T07:18:26;10.90;1.00
5286;DHT22;2665;53.112;7.358;2023-05-07T07:20:52;10.90;99.90
5286;DHT22;2665;53.112;7.358;2023-05-07T07:23:18;10.90;99.90
5286;DHT22;2665;53.112;7.358;2023-05-07T07:25:43;10.90;99.90
5286;DHT22;2665;53.112;7.358;2023-05-07T07:28:09;11.00;99.90
5286;DHT22;2665;53.112;7.358;2023-05-07T07:30:36;11.00;1.00
5286;DHT22;2665;53.112;7.358;2023-05-07T07:33:02;11.00;99.90
5286;DHT22;2665;53.112;7.358;2023-05-07T07:35:34;11.10;1.00
5286;DHT22;2665;53.112;7.358;2023-05-07T07:38:00;11.20;1.00
5286;DHT22;2665;53.112;7.358;2023-05-07T07:40:27;11.20;99.90
5286;DHT22;2665;53.112;7.358;2023-05-07T07:42:53;11.30;99.90
5286;DHT22;2665;53.112;7.358;2023-05-07T07:45:19;11.30;99.90
5286;DHT22;2665;53.112;7.358;2023-05-07T07:47:45;11.30;1.00
5286;DHT22;2665;53.112;7.358;2023-05-07T07:50:10;11.40;99.90
5286;DHT22;2665;53.112;7.358;2023-05-07T07:52:36;11.40;1.00
5286;DHT22;2665;53.112;7.358;2023-05-07T07:55:02;11.40;4.00
5286;DHT22;2665;53.112;7.358;2023-05-07T07:57:28;11.40;1.00
5286;DHT22;2665;53.112;7.358;2023-05-07T07:59:54;11.40;1.00
5286;DHT22;2665;53.112;7.358;2023-05-07T08:02:20;11.40;99.90
5286;DHT22;2665;53.112;7.358;2023-05-07T08:04:45;11.50;99.90
5286;DHT22;2665;53.112;7.358;2023-05-07T08:07:11;11.60;1.00
5286;DHT22;2665;53.112;7.358;2023-05-07T08:09:38;11.60;1.00
5286;DHT22;2665;53.112;7.358;2023-05-07T08:12:04;11.70;13.00
5286;DHT22;2665;53.112;7.358;2023-05-07T08:14:30;11.80;1.00
5286;DHT22;2665;53.112;7.358;2023-05-07T08:16:56;12.00;1.00
5286;DHT22;2665;53.112;7.358;2023-05-07T08:19:21;12.10;99.90
5286;DHT22;2665;53.112;7.358;2023-05-07T08:21:47;12.20;99.90
5286;DHT22;2665;53.112;7.358;2023-05-07T08:24:17;12.20;1.00
5286;DHT22;2665;53.112;7.358;2023-05-07T08:26:44;12.30;99.90
5286;DHT22;2665;53.112;7.358;2023-05-07T08:29:09;12.30;99.90
5286;DHT22;2665;53.112;7.358;2023-05-07T08:31:35;12.50;1.00
5286;DHT22;2665;53.112;7.358;2023-05-07T08:34:01;12.60;1.00
5286;DHT22;2665;53.112;7.358;2023-05-07T08:36:26;12.70;1.00
5286;DHT22;2665;53.112;7.358;2023-05-07T08:38:52;12.80;99.90
5286;DHT22;2665;53.112;7.358;2023-05-07T08:41:18;12.90;99.90
5286;DHT22;2665;53.112;7.358;2023-05-07T08:43:48;13.10;1.00
5286;DHT22;2665;53.112;7.358;2023-05-07T08:46:18;13.20;99.90
5286;DHT22;2665;53.112;7.358;2023-05-07T08:48:45;13.20;90.20
5286;DHT22;2665;53.112;7.358;2023-05-07T08:51:13;13.20;1.00
5286;DHT22;2665;53.112;7.358;2023-05-07T08:53:41;13.10;1.00
5286;DHT22;2665;53.112;7.358;2023-05-07T08:56:08;13.20;99.90
5286;DHT22;2665;53.112;7.358;2023-05-07T08:58:35;13.30;53.00
5286;DHT22;2665;53.112;7.358;2023-05-07T09:01:08;13.30;1.00
5286;DHT22;2665;53.112;7.358;2023-05-07T09:03:34;13.40;1.00
5286;DHT22;2665;53.112;7.358;2023-05-07T09:06:00;13.60;1.00
5286;DHT22;2665;53.112;7.358;2023-05-07T09:08:27;13.70;1.00
5286;DHT22;2665;53.112;7.358;2023-05-07T09:10:53;13.70;99.90
5286;DHT22;2665;53.112;7.358;2023-05-07T09:13:19;13.70;99.90
5286;DHT22;2665;53.112;7.358;2023-05-07T09:15:45;13.70;99.90
5286;DHT22;2665;53.112;7.358;2023-05-07T09:18:10;13.80;99.90
5286;DHT22;2665;53.112;7.358;2023-05-07T09:20:37;13.80;99.90
5286;DHT22;2665;53.112;7.358;2023-05-07T09:23:03;13.80;1.00
5286;DHT22;2665;53.112;7.358;2023-05-07T09:25:30;13.90;99.90
5286;DHT22;2665;53.112;7.358;2023-05-07T09:27:57;13.90;1.00
5286;DHT22;2665;53.112;7.358;2023-05-07T09:30:22;14.00;1.00
5286;DHT22;2665;53.112;7.358;2023-05-07T09:32:48;14.00;1.00
5286;DHT22;2665;53.112;7.358;2023-05-07T09:35:17;14.10;1.00
5286;DHT22;2665;53.112;7.358;2023-05-07T09:37:43;14.10;1.00
5286;DHT22;2665;53.112;7.358;2023-05-07T09:40:20;14.20;1.00
5286;DHT22;2665;53.112;7.358;2023-05-07T11:35:56;21.40;1.00
5286;DHT22;2665;53.112;7.358;2023-05-07T11:38:22;21.40;1.00
5286;DHT22;2665;53.112;7.358;2023-05-07T11:40:51;21.40;1.00
5286;DHT22;2665;53.112;7.358;2023-05-07T11:43:17;20.90;1.00
5286;DHT22;2665;53.112;7.358;2023-05-07T11:45:44;21.10;1.00
5286;DHT22;2665;53.112;7.358;2023-05-07T11:48:09;21.20;1.00
5286;DHT22;2665;53.112;7.358;2023-05-07T11:50:35;21.40;1.00
5286;DHT22;2665;53.112;7.358;2023-05-07T11:53:07;21.20;1.00
5286;DHT22;2665;53.112;7.358;2023-05-07T11:55:33;21.00;1.00
5286;DHT22;2665;53.112;7.358;2023-05-07T11:57:58;21.40;1.00
5286;DHT22;2665;53.112;7.358;2023-05-07T12:00:24;22.10;1.00
5286;DHT22;2665;53.112;7.358;2023-05-07T12:02:50;22.40;1.00
5286;DHT22;2665;53.112;7.358;2023-05-07T12:05:16;22.90;1.00
5286;DHT22;2665;53.112;7.358;2023-05-07T12:07:41;23.50;1.00
5286;DHT22;2665;53.112;7.358;2023-05-07T12:10:07;24.00;1.00
5286;DHT22;2665;53.112;7.358;2023-05-07T12:12:40;23.70;1.00
5286;DHT22;2665;53.112;7.358;2023-05-07T12:15:07;23.20;1.00
5286;DHT22;2665;53.112;7.358;2023-05-07T12:17:33;23.30;1.00
5286;DHT22;2665;53.112;7.358;2023-05-07T12:19:59;23.60;1.00
5286;DHT22;2665;53.112;7.358;2023-05-07T12:22:25;23.50;1.00
5286;DHT22;2665;53.112;7.358;2023-05-07T12:24:58;23.20;1.00
5286;DHT22;2665;53.112;7.358;2023-05-07T12:27:24;22.70;1.00
5286;DHT22;2665;53.112;7.358;2023-05-07T12:29:51;22.30;1.00
5286;DHT22;2665;53.112;7.358;2023-05-07T12:32:17;22.10;1.00
5286;DHT22;2665;53.112;7.358;2023-05-07T12:34:44;22.10;1.00
5286;DHT22;2665;53.112;7.358;2023-05-07T12:37:10;22.30;1.00
5286;DHT22;2665;53.112;7.358;2023-05-07T12:39:36;22.10;1.00
5286;DHT22;2665;53.112;7.358;2023-05-07T12:42:02;22.20;1.00
5286;DHT22;2665;53.112;7.358;2023-05-07T12:44:34;22.50;1.00
5286;DHT22;2665;53.112;7.358;2023-05-07T12:47:03;23.20;1.00
5286;DHT22;2665;53.112;7.358;2023-05-07T12:49:29;23.90;1.00
5286;DHT22;2665;53.112;7.358;2023-05-07T12:51:54;24.50;1.00
5286;DHT22;2665;53.112;7.358;2023-05-07T12:54:30;25.30;1.00
5286;DHT22;2665;53.112;7.358;2023-05-07T12:57:06;25.80;1.00
5286;DHT22;2665;53.112;7.358;2023-05-07T12:59:41;25.50;1.00
5286;DHT22;2665;53.112;7.358;2023-05-07T13:02:08;24.90;1.00
5286;DHT22;2665;53.112;7.358;2023-05-07T13:04:34;24.70;1.00
5286;DHT22;2665;53.112;7.358;2023-05-07T13:07:01;25.10;1.00
5286;DHT22;2665;53.112;7.358;2023-05-07T13:09:26;25.40;1.00
5286;DHT22;2665;53.112;7.358;2023-05-07T13:11:54;25.80;1.00
5286;DHT22;2665;53.112;7.358;2023-05-07T13:14:20;26.10;1.00
5286;DHT22;2665;53.112;7.358;2023-05-07T13:16:49;26.30;1.00
5286;DHT22;2665;53.112;7.358;2023-05-07T13:19:14;26.30;1.00
5286;DHT22;2665;53.112;7.358;2023-05-07T13:21:40;26.40;1.00
5286;DHT22;2665;53.112;7.358;2023-05-07T13:24:06;26.30;1.00
5286;DHT22;2665;53.112;7.358;2023-05-07T13:26:32;26.30;1.00
5286;DHT22;2665;53.112;7.358;2023-05-07T13:28:57;26.20;1.00
5286;DHT22;2665;53.112;7.358;2023-05-07T13:31:24;25.80;1.00
5286;DHT22;2665;53.112;7.358;2023-05-07T13:33:50;25.80;1.00
5286;DHT22;2665;53.112;7.358;2023-05-07T13:36:15;26.10;1.00
5286;DHT22;2665;53.112;7.358;2023-05-07T13:38:41;26.30;1.00
5286;DHT22;2665;53.112;7.358;2023-05-07T13:41:07;26.70;1.00
5286;DHT22;2665;53.112;7.358;2023-05-07T13:43:32;26.70;1.00
5286;DHT22;2665;53.112;7.358;2023-05-07T13:46:00;26.40;1.00
5286;DHT22;2665;53.112;7.358;2023-05-07T13:48:26;26.30;1.00
5286;DHT22;2665;53.112;7.358;2023-05-07T13:50:53;26.50;1.00
5286;DHT22;2665;53.112;7.358;2023-05-07T13:53:19;26.90;1.00
5286;DHT22;2665;53.112;7.358;2023-05-07T13:55:45;27.00;1.00
5286;DHT22;2665;53.112;7.358;2023-05-07T13:58:10;27.20;1.00
5286;DHT22;2665;53.112;7.358;2023-05-07T14:00:36;27.30;1.00
5286;DHT22;2665;53.112;7.358;2023-05-07T14:03:01;26.80;1.00
5286;DHT22;2665;53.112;7.358;2023-05-07T14:05:27;26.60;1.00
5286;DHT22;2665;53.112;7.358;2023-05-07T14:07:54;26.60;1.00
5286;DHT22;2665;53.112;7.358;2023-05-07T14:10:20;26.70;1.00
5286;DHT22;2665;53.112;7.358;2023-05-07T14:12:47;26.80;1.00
5286;DHT22;2665;53.112;7.358;2023-05-07T14:15:12;26.10;1.00
5286;DHT22;2665;53.112;7.358;2023-05-07T14:17:38;25.50;1.00
5286;DHT22;2665;53.112;7.358;2023-05-07T14:20:04;25.30;1.00
5286;DHT22;2665;53.112;7.358;2023-05-07T14:22:31;25.70;1.00
5286;DHT22;2665;53.112;7.358;2023-05-07T14:24:57;26.00;1.00
5286;DHT22;2665;53.112;7.358;2023-05-07T14:27:22;26.10;1.00
5286;DHT22;2665;53.112;7.358;2023-05-07T14:29:48;26.40;1.00
5286;DHT22;2665;53.112;7.358;2023-05-07T14:32:19;26.60;1.00
5286;DHT22;2665;53.112;7.358;2023-05-07T14:34:45;27.00;1.00
5286;DHT22;2665;53.112;7.358;2023-05-07T14:37:12;26.90;1.00
5286;DHT22;2665;53.112;7.358;2023-05-07T14:39:38;26.70;1.00
5286;DHT22;2665;53.112;7.358;2023-05-07T14:42:03;26.20;1.00
5286;DHT22;2665;53.112;7.358;2023-05-07T14:44:29;25.70;1.00
5286;DHT22;2665;53.112;7.358;2023-05-07T14:46:55;25.50;1.00
5286;DHT22;2665;53.112;7.358;2023-05-07T14:49:20;25.30;1.00
5286;DHT22;2665;53.112;7.358;2023-05-07T14:51:46;24.90;1.00
5286;DHT22;2665;53.112;7.358;2023-05-07T14:54:13;24.70;1.00
5286;DHT22;2665;53.112;7.358;2023-05-07T14:56:39;25.30;1.00
5286;DHT22;2665;53.112;7.358;2023-05-07T14:59:05;25.60;1.00
5286;DHT22;2665;53.112;7.358;2023-05-07T15:01:31;26.00;1.00
5286;DHT22;2665;53.112;7.358;2023-05-07T15:03:57;26.20;1.00
5286;DHT22;2665;53.112;7.358;2023-05-07T15:06:22;26.30;1.00
5286;DHT22;2665;53.112;7.358;2023-05-07T15:08:48;26.30;1.00
5286;DHT22;2665;53.112;7.358;2023-05-07T15:11:14;26.20;1.00
5286;DHT22;2665;53.112;7.358;2023-05-07T15:13:42;26.40;1.00
5286;DHT22;2665;53.112;7.358;2023-05-07T15:16:08;26.60;1.00
5286;DHT22;2665;53.112;7.358;2023-05-07T15:18:33;26.60;1.00
5286;DHT22;2665;53.112;7.358;2023-05-07T15:20:59;25.60;1.00
5286;DHT22;2665;53.112;7.358;2023-05-07T15:23:25;24.40;1.00
5286;DHT22;2665;53.112;7.358;2023-05-07T15:25:51;23.90;1.00
5286;DHT22;2665;53.112;7.358;2023-05-07T15:28:17;23.10;1.00
5286;DHT22;2665;53.112;7.358;2023-05-07T15:30:43;22.70;1.00
5286;DHT22;2665;53.112;7.358;2023-05-07T15:38:01;21.80;1.00
5286;DHT22;2665;53.112;7.358;2023-05-07T15:40:28;21.60;1.00
5286;DHT22;2665;53.112;7.358;2023-05-07T15:42:54;21.50;1.00
5286;DHT22;2665;53.112;7.358;2023-05-07T15:45:21;21.30;1.00
5286;DHT22;2665;53.112;7.358;2023-05-07T15:47:46;21.10;1.00
5286;DHT22;2665;53.112;7.358;2023-05-07T15:50:12;21.10;1.00
5286;DHT22;2665;53.112;7.358;2023-05-07T15:52:38;21.70;1.00
5286;DHT22;2665;53.112;7.358;2023-05-07T15:55:04;21.80;1.00
5286;DHT22;2665;53.112;7.358;2023-05-07T15:57:31;21.70;1.00
5286;DHT22;2665;53.112;7.358;2023-05-07T15:59:57;21.60;1.00
5286;DHT22;2665;53.112;7.358;2023-05-07T16:02:23;21.50;1.00
5286;DHT22;2665;53.112;7.358;2023-05-07T16:04:49;21.90;1.00
5286;DHT22;2665;53.112;7.358;2023-05-07T16:07:15;22.80;1.00
5286;DHT22;2665;53.112;7.358;2023-05-07T16:09:40;22.50;1.00
5286;DHT22;2665;53.112;7.358;2023-05-07T20:18:31;13.20;55.60
5286;DHT22;2665;53.112;7.358;2023-05-07T20:20:57;13.00;69.30
5286;DHT22;2665;53.112;7.358;2023-05-07T20:23:23;13.00;70.60
5286;DHT22;2665;53.112;7.358;2023-05-07T20:25:48;13.00;91.00
5286;DHT22;2665;53.112;7.358;2023-05-07T20:28:14;12.90;76.60
5286;DHT22;2665;53.112;7.358;2023-05-07T20:30:40;12.90;78.70
5286;DHT22;2665;53.112;7.358;2023-05-07T20:33:06;12.80;78.80
5286;DHT22;2665;53.112;7.358;2023-05-07T20:35:32;12.80;82.80
5286;DHT22;2665;53.112;7.358;2023-05-07T20:37:57;12.70;83.30
5286;DHT22;2665;53.112;7.358;2023-05-07T20:40:23;12.70;83.70
5286;DHT22;2665;53.112;7.358;2023-05-07T20:42:50;12.70;84.00
5286;DHT22;2665;53.112;7.358;2023-05-07T20:45:15;12.70;86.90
5286;DHT22;2665;53.112;7.358;2023-05-07T20:47:41;12.60;90.20
5286;DHT22;2665;53.112;7.358;2023-05-07T20:50:07;12.60;91.00
5286;DHT22;2665;53.112;7.358;2023-05-07T20:52:33;12.60;91.60
5286;DHT22;2665;53.112;7.358;2023-05-07T20:54:59;12.60;92.50
5286;DHT22;2665;53.112;7.358;2023-05-07T20:57:24;12.50;93.00
5286;DHT22;2665;53.112;7.358;2023-05-07T20:59:50;12.50;93.80
5286;DHT22;2665;53.112;7.358;2023-05-07T21:02:15;12.50;94.30
5286;DHT22;2665;53.112;7.358;2023-05-07T21:04:41;12.50;95.60
5286;DHT22;2665;53.112;7.358;2023-05-07T21:07:07;12.50;95.60
5286;DHT22;2665;53.112;7.358;2023-05-07T21:09:32;12.40;95.90
5286;DHT22;2665;53.112;7.358;2023-05-07T21:11:58;12.40;97.10
5286;DHT22;2665;53.112;7.358;2023-05-07T21:14:24;12.30;98.10
5286;DHT22;2665;53.112;7.358;2023-05-07T21:16:49;12.30;98.00
5286;DHT22;2665;53.112;7.358;2023-05-07T21:19:15;12.30;99.50
5286;DHT22;2665;53.112;7.358;2023-05-07T21:21:41;12.30;99.90
5286;DHT22;2665;53.112;7.358;2023-05-07T21:24:07;12.30;99.60
5286;DHT22;2665;53.112;7.358;2023-05-07T21:26:33;12.20;99.90
5286;DHT22;2665;53.112;7.358;2023-05-07T21:28:59;12.20;99.90
5286;DHT22;2665;53.112;7.358;2023-05-07T21:31:25;12.20;99.90
5286;DHT22;2665;53.112;7.358;2023-05-07T21:33:51;12.10;99.90
5286;DHT22;2665;53.112;7.358;2023-05-07T21:36:17;12.10;99.90
5286;DHT22;2665;53.112;7.358;2023-05-07T21:38:43;12.10;99.90
5286;DHT22;2665;53.112;7.358;2023-05-07T21:41:09;12.10;99.90
5286;DHT22;2665;53.112;7.358;2023-05-07T21:43:36;12.10;99.90
5286;DHT22;2665;53.112;7.358;2023-05-07T21:46:08;12.10;99.90
5286;DHT22;2665;53.112;7.358;2023-05-07T21:48:34;12.00;99.90
5286;DHT22;2665;53.112;7.358;2023-05-07T21:51:05;12.00;99.90
5286;DHT22;2665;53.112;7.358;2023-05-07T21:53:32;12.00;99.90
5286;DHT22;2665;53.112;7.358;2023-05-07T21:55:58;12.00;99.90
5286;DHT22;2665;53.112;7.358;2023-05-07T21:58:27;12.00;99.90
5286;DHT22;2665;53.112;7.358;2023-05-07T22:00:54;12.00;99.90
5286;DHT22;2665;53.112;7.358;2023-05-07T22:03:19;11.90;99.90
5286;DHT22;2665;53.112;7.358;2023-05-07T22:05:45;12.00;99.90
5286;DHT22;2665;53.112;7.358;2023-05-07T22:08:11;11.90;99.90
5286;DHT22;2665;53.112;7.358;2023-05-07T22:10:37;11.90;99.90
5286;DHT22;2665;53.112;7.358;2023-05-07T22:13:03;11.90;99.90